Hovedside
METAR-TAF:

METAR-TAF

Lufthavner :

Mountain Home, Arkansas, USA

breddegrad: 36-22-14N, lengdegrad: 092-28-19W, høyde over havet: 282 m

Gjeldene værobservasjon

Denne rapporten ble laget for 1 time og 9 minutter siden, klokken 11:53 UTC
Flau vind
Temperatur 22°C
Luftfuktighet 94%
Trykk 1018 hPa
Sikt: 9.7 km
Skyfri himmel
dis

METAR: KBPK 241153Z AUTO 00000KT 6SM BR CLR 22/21 A3007 RMK AO2 SLP171 T02220211 10239 20222 52004

Tid: 08:02 (13:02 UTC)

Varsel

Denne rapporten ble laget for 1 time og 42 minutter siden, klokken 11:20 UTC
Varsel gyldig fra 24. klokken 12 UTC til 25. klokken 12 UTC
Vind 5 kt fra skiftende retning
Sikt: 10 km
Spredte skyer i en høyde av 5000 ft

TAF: KBPK 241120Z 2412/2512 VRB05KT P6SM SCT050

Værobservasjoner og værvarsel for over 4000 flyplasser (METAR- og TAF-rapporter).

Tilgjengelige stasjoner er representert av de røde og gule prikkene på kartet.

Hold musepekeren over prikken for å se navnet på stasjonen.

Klikk så for å se værobservasjoner og -varsler.

For å forandre kartet kan du klikke på den grønne knappen med svart kryss for å zoome inn, på den grønne knappen med strek for å zoome ut, eller på de grønne pilene for å se tilstøtende kart.


METAR-TAF: